createdAt,value
2018-12-16T00:01:10.147Z,38.20
2018-12-16T00:03:38.501Z,31.12
2018-12-16T00:06:07.169Z,32.55
2018-12-16T00:08:35.486Z,36.65
2018-12-16T00:11:03.806Z,36.53
2018-12-16T00:13:32.444Z,38.58
2018-12-16T00:16:00.895Z,40.58
2018-12-16T00:18:29.184Z,30.77
2018-12-16T00:20:57.555Z,34.27
2018-12-16T00:23:25.864Z,40.35
2018-12-16T00:25:54.177Z,39.25
2018-12-16T00:28:22.593Z,35.28
2018-12-16T00:30:50.944Z,34.18
2018-12-16T00:33:19.280Z,36.10
2018-12-16T00:35:47.610Z,32.20
2018-12-16T00:38:15.995Z,37.63
2018-12-16T00:40:44.541Z,37.17
2018-12-16T00:43:12.970Z,35.20
2018-12-16T00:45:41.257Z,35.70
2018-12-16T00:48:09.662Z,33.83
2018-12-16T00:50:38.525Z,32.93
2018-12-16T00:53:07.136Z,42.48
2018-12-16T00:55:35.519Z,41.42
2018-12-16T00:58:03.863Z,41.80
2018-12-16T01:00:32.215Z,42.67
2018-12-16T01:03:01.443Z,39.50
2018-12-16T01:05:29.950Z,36.65
2018-12-16T01:07:58.428Z,39.30
2018-12-16T01:10:27.702Z,43.30
2018-12-16T01:12:57.414Z,41.28
2018-12-16T01:15:28.284Z,40.73
2018-12-16T01:17:56.913Z,39.00
2018-12-16T01:20:25.369Z,43.35
2018-12-16T01:22:56.909Z,43.58
2018-12-16T01:25:25.305Z,45.43
2018-12-16T01:27:53.862Z,39.42
2018-12-16T01:30:22.191Z,42.95
2018-12-16T01:32:50.603Z,37.10
2018-12-16T01:35:19.069Z,42.55
2018-12-16T01:37:47.469Z,45.10
2018-12-16T01:40:16.632Z,42.95
2018-12-16T01:42:44.990Z,38.83
2018-12-16T01:45:13.492Z,49.75
2018-12-16T01:47:41.815Z,55.48
2018-12-16T01:50:10.304Z,49.60
2018-12-16T01:52:38.790Z,42.65
2018-12-16T01:55:08.629Z,49.00
2018-12-16T01:57:37.073Z,47.13
2018-12-16T02:00:09.604Z,50.95
2018-12-16T02:02:37.961Z,49.33
2018-12-16T02:05:06.813Z,45.08
2018-12-16T02:07:35.134Z,43.13
2018-12-16T02:10:04.385Z,47.23
2018-12-16T02:12:32.685Z,45.60
2018-12-16T02:15:00.980Z,48.40
2018-12-16T02:17:29.550Z,49.65
2018-12-16T02:19:57.837Z,43.20
2018-12-16T02:22:26.167Z,44.35
2018-12-16T02:24:54.597Z,40.50
2018-12-16T02:27:22.928Z,45.52
2018-12-16T02:29:52.082Z,49.65
2018-12-16T02:32:20.436Z,39.98
2018-12-16T02:34:48.837Z,50.12
2018-12-16T02:37:17.350Z,44.80
2018-12-16T02:39:45.820Z,46.35
2018-12-16T02:42:14.293Z,45.70
2018-12-16T02:44:42.622Z,38.55
2018-12-16T02:47:10.966Z,47.83
2018-12-16T02:49:39.347Z,42.10
2018-12-16T02:52:07.730Z,54.98
2018-12-16T02:54:36.049Z,50.88
2018-12-16T02:57:04.422Z,56.85
2018-12-16T02:59:32.796Z,53.13
2018-12-16T03:02:01.313Z,56.37
2018-12-16T03:04:29.720Z,49.58
2018-12-16T03:06:58.035Z,55.48
2018-12-16T03:09:26.571Z,57.83
2018-12-16T03:11:55.106Z,56.48
2018-12-16T03:14:23.508Z,65.35
2018-12-16T03:16:52.000Z,56.37
2018-12-16T03:19:20.289Z,56.80
2018-12-16T03:21:48.641Z,59.75
2018-12-16T03:24:17.117Z,58.87
2018-12-16T03:26:45.458Z,56.05
2018-12-16T03:29:13.770Z,54.65
2018-12-16T03:31:42.092Z,57.17
2018-12-16T03:34:10.511Z,54.48
2018-12-16T03:36:38.816Z,56.13
2018-12-16T03:39:07.743Z,57.38
2018-12-16T03:41:36.535Z,59.85
2018-12-16T03:44:05.103Z,55.78
2018-12-16T03:46:33.534Z,55.80
2018-12-16T03:49:01.887Z,52.85
2018-12-16T03:51:30.161Z,49.48
2018-12-16T03:53:58.487Z,46.85
2018-12-16T03:56:26.926Z,47.62
2018-12-16T03:59:21.918Z,52.73
2018-12-16T04:02:04.688Z,53.30
2018-12-16T04:04:33.219Z,52.60
2018-12-16T04:07:01.585Z,52.62
2018-12-16T04:09:30.018Z,54.65
2018-12-16T04:11:58.371Z,47.48
2018-12-16T04:14:26.675Z,48.42
2018-12-16T04:16:55.005Z,52.40
2018-12-16T04:19:23.317Z,52.98
2018-12-16T04:21:51.675Z,54.27
2018-12-16T04:24:20.006Z,45.60
2018-12-16T04:26:48.753Z,45.98
2018-12-16T04:29:17.043Z,46.60
2018-12-16T04:31:45.423Z,44.58
2018-12-16T04:34:13.789Z,55.03
2018-12-16T04:36:42.139Z,45.98
2018-12-16T04:39:10.498Z,57.80
2018-12-16T04:41:38.944Z,47.88
2018-12-16T04:44:07.348Z,51.30
2018-12-16T04:46:35.683Z,45.80
2018-12-16T04:49:04.174Z,47.35
2018-12-16T04:51:32.465Z,58.15
2018-12-16T04:54:00.790Z,56.35
2018-12-16T04:56:29.200Z,50.30
2018-12-16T04:58:57.485Z,53.85
2018-12-16T05:01:25.865Z,51.10
2018-12-16T05:03:54.174Z,54.08
2018-12-16T05:06:22.466Z,50.88
2018-12-16T05:08:50.749Z,51.73
2018-12-16T05:11:19.364Z,52.27
2018-12-16T05:13:47.660Z,56.90
2018-12-16T05:16:15.966Z,52.58
2018-12-16T05:18:44.281Z,52.38
2018-12-16T05:21:12.562Z,47.43
2018-12-16T05:23:42.082Z,48.35
2018-12-16T05:26:11.172Z,56.63
2018-12-16T05:28:39.467Z,49.85
2018-12-16T05:31:08.294Z,51.02
2018-12-16T05:33:37.553Z,55.70
2018-12-16T05:36:06.085Z,51.95
2018-12-16T05:38:34.403Z,59.93
2018-12-16T05:41:02.801Z,52.20
2018-12-16T05:43:31.140Z,50.17
2018-12-16T05:45:59.552Z,51.63
2018-12-16T05:48:27.868Z,41.92
2018-12-16T05:50:56.174Z,53.48
2018-12-16T05:53:24.494Z,52.62
2018-12-16T05:55:53.106Z,51.85
2018-12-16T05:58:21.428Z,58.10
2018-12-16T06:00:49.732Z,55.52
2018-12-16T06:03:18.034Z,50.23
2018-12-16T06:05:46.380Z,49.93
2018-12-16T06:08:14.690Z,49.10
2018-12-16T06:10:43.075Z,55.60
2018-12-16T06:13:11.398Z,58.28
2018-12-16T06:15:39.786Z,59.83
2018-12-16T06:18:08.577Z,63.83
2018-12-16T06:20:36.900Z,58.60
2018-12-16T06:23:05.188Z,45.43
2018-12-16T06:25:33.548Z,58.98
2018-12-16T06:28:01.861Z,58.68
2018-12-16T06:30:31.492Z,57.43
2018-12-16T06:32:59.827Z,68.87
2018-12-16T06:35:28.126Z,51.28
2018-12-16T06:37:56.411Z,60.60
2018-12-16T06:40:25.303Z,53.52
2018-12-16T06:42:53.599Z,58.98
2018-12-16T06:45:21.948Z,57.80
2018-12-16T06:47:50.284Z,59.83
2018-12-16T06:50:18.610Z,58.15
2018-12-16T06:52:46.889Z,56.55
2018-12-16T06:55:15.237Z,56.00
2018-12-16T06:57:43.554Z,59.88
2018-12-16T07:00:13.326Z,61.73
2018-12-16T07:02:41.925Z,71.35
2018-12-16T07:05:10.264Z,57.65
2018-12-16T07:07:38.570Z,60.60
2018-12-16T07:10:06.929Z,72.12
2018-12-16T07:12:35.211Z,64.90
2018-12-16T07:15:03.563Z,57.75
2018-12-16T07:17:31.973Z,57.62
2018-12-16T07:20:00.301Z,56.33
2018-12-16T07:22:28.738Z,59.50
2018-12-16T07:24:57.410Z,64.90
2018-12-16T07:27:25.723Z,62.95
2018-12-16T07:29:54.051Z,59.50
2018-12-16T07:32:22.376Z,60.92
2018-12-16T07:34:50.701Z,55.38
2018-12-16T07:37:19.463Z,56.37
2018-12-16T07:39:47.916Z,65.80
2018-12-16T07:42:16.335Z,58.78
2018-12-16T07:44:44.825Z,56.50
2018-12-16T07:47:13.536Z,53.78
2018-12-16T07:49:41.871Z,57.95
2018-12-16T07:52:10.213Z,62.23
2018-12-16T07:54:38.639Z,54.58
2018-12-16T07:57:06.967Z,61.28
2018-12-16T07:59:35.365Z,56.68
2018-12-16T08:02:03.731Z,54.08
2018-12-16T08:04:32.145Z,45.48
2018-12-16T08:07:00.574Z,54.80
2018-12-16T08:09:28.985Z,53.95
2018-12-16T08:11:57.309Z,49.33
2018-12-16T08:14:25.653Z,44.65
2018-12-16T08:16:54.449Z,46.80
2018-12-16T08:19:23.207Z,49.45
2018-12-16T08:21:51.531Z,44.63
2018-12-16T08:24:23.107Z,51.90
2018-12-16T08:26:50.279Z,42.73
2018-12-16T08:29:18.574Z,41.73
2018-12-16T08:31:47.193Z,38.88
2018-12-16T08:34:15.539Z,45.28
2018-12-16T08:36:43.831Z,48.52
2018-12-16T08:39:12.183Z,39.73
2018-12-16T08:41:40.470Z,38.17
2018-12-16T08:44:08.802Z,42.80
2018-12-16T08:46:37.157Z,44.18
2018-12-16T08:49:05.425Z,38.25
2018-12-16T08:51:33.745Z,43.70
2018-12-16T08:54:02.549Z,36.80
2018-12-16T08:56:30.864Z,36.03
2018-12-16T08:58:59.170Z,41.10
2018-12-16T09:01:29.264Z,38.58
2018-12-16T09:03:57.870Z,41.10
2018-12-16T09:06:26.204Z,42.10
2018-12-16T09:08:54.970Z,42.75
2018-12-16T09:11:23.503Z,40.03
2018-12-16T09:13:51.817Z,40.55
2018-12-16T09:16:20.322Z,36.05
2018-12-16T09:18:48.684Z,38.95
2018-12-16T09:21:17.218Z,41.45
2018-12-16T09:23:45.600Z,36.63
2018-12-16T09:26:13.939Z,35.90
2018-12-16T09:28:42.277Z,39.48
2018-12-16T09:31:10.620Z,32.42
2018-12-16T09:33:38.951Z,36.30
2018-12-16T09:36:07.350Z,38.00
2018-12-16T09:38:35.761Z,35.17
2018-12-16T09:41:04.095Z,36.08
2018-12-16T09:43:32.435Z,45.12
2018-12-16T09:46:00.818Z,37.45
2018-12-16T09:48:29.118Z,41.48
2018-12-16T09:50:57.448Z,40.78
2018-12-16T09:53:25.807Z,38.50
2018-12-16T09:55:54.114Z,38.60
2018-12-16T09:58:22.443Z,36.73
2018-12-16T10:00:50.882Z,37.60
2018-12-16T10:03:19.225Z,42.67
2018-12-16T10:05:47.606Z,32.13
2018-12-16T10:08:15.919Z,33.63
2018-12-16T10:10:44.277Z,32.78
2018-12-16T10:13:12.604Z,37.90
2018-12-16T10:15:40.958Z,29.15
2018-12-16T10:18:09.249Z,33.18
2018-12-16T10:20:37.578Z,39.98
2018-12-16T10:23:06.238Z,33.75
2018-12-16T10:25:34.525Z,29.63
2018-12-16T10:28:02.963Z,31.62
2018-12-16T10:30:31.337Z,28.38
2018-12-16T10:32:59.696Z,29.60
2018-12-16T10:35:28.020Z,32.40
2018-12-16T10:37:56.411Z,34.63
2018-12-16T10:40:24.785Z,33.30
2018-12-16T10:42:53.114Z,31.60
2018-12-16T10:45:21.987Z,35.58
2018-12-16T10:47:50.266Z,35.83
2018-12-16T10:50:18.602Z,31.68
2018-12-16T10:52:46.960Z,32.20
2018-12-16T10:55:15.285Z,31.80
2018-12-16T10:57:43.579Z,35.45
2018-12-16T11:00:20.481Z,38.15
2018-12-16T11:02:48.862Z,38.23
2018-12-16T11:05:17.537Z,33.48
2018-12-16T11:07:50.621Z,35.23
2018-12-16T11:10:18.991Z,38.45
2018-12-16T11:12:48.081Z,35.05
2018-12-16T11:15:16.808Z,31.33
2018-12-16T11:17:45.137Z,39.13
2018-12-16T11:20:13.495Z,37.73
2018-12-16T11:22:42.202Z,30.75
2018-12-16T11:25:11.579Z,35.00
2018-12-16T11:27:39.961Z,44.95
2018-12-16T11:30:09.958Z,38.70
2018-12-16T11:32:38.279Z,36.42
2018-12-16T11:35:06.955Z,36.00
2018-12-16T11:37:35.378Z,35.73
2018-12-16T11:40:04.800Z,37.28
2018-12-16T11:42:33.143Z,33.55
2018-12-16T11:45:01.478Z,34.70
2018-12-16T11:47:29.774Z,36.88
2018-12-16T11:49:58.086Z,36.30
2018-12-16T11:52:26.808Z,39.92
2018-12-16T11:54:55.254Z,38.40
2018-12-16T11:57:23.616Z,32.33
2018-12-16T11:59:51.948Z,37.05
2018-12-16T12:02:20.323Z,35.63
2018-12-16T12:04:48.634Z,42.38
2018-12-16T12:07:16.969Z,38.70
2018-12-16T12:09:45.320Z,39.90
2018-12-16T12:12:13.702Z,38.42
2018-12-16T12:14:42.488Z,38.67
2018-12-16T12:17:10.840Z,39.80
2018-12-16T12:19:39.221Z,37.03
2018-12-16T12:22:07.690Z,38.05
2018-12-16T12:24:36.039Z,37.40
2018-12-16T12:27:04.385Z,37.05
2018-12-16T12:29:32.845Z,40.45
2018-12-16T12:32:01.174Z,38.70
2018-12-16T12:34:29.499Z,41.50
2018-12-16T12:36:57.909Z,45.55
2018-12-16T12:39:26.238Z,41.77
2018-12-16T12:41:54.574Z,42.62
2018-12-16T12:44:22.926Z,44.60
2018-12-16T12:46:51.319Z,42.62
2018-12-16T12:49:19.642Z,49.45
2018-12-16T12:51:48.035Z,42.50
2018-12-16T12:54:16.405Z,35.98
2018-12-16T12:56:44.712Z,41.15
2018-12-16T12:59:13.508Z,42.35
2018-12-16T13:01:41.900Z,34.10
2018-12-16T13:04:10.200Z,43.17
2018-12-16T13:06:38.613Z,41.90
2018-12-16T13:09:07.812Z,39.25
2018-12-16T13:11:36.177Z,51.00
2018-12-16T13:14:04.555Z,37.00
2018-12-16T13:16:32.853Z,54.83
2018-12-16T13:19:01.353Z,42.80
2018-12-16T13:21:29.779Z,37.80
2018-12-16T13:23:58.067Z,45.95
2018-12-16T13:26:26.398Z,40.50
2018-12-16T13:28:54.714Z,45.38
2018-12-16T13:31:23.009Z,52.23
2018-12-16T13:33:51.363Z,42.98
2018-12-16T13:36:19.711Z,48.60
2018-12-16T13:38:48.050Z,48.87
2018-12-16T13:41:16.363Z,45.38
2018-12-16T13:43:44.841Z,46.40
2018-12-16T13:46:13.201Z,42.83
2018-12-16T13:48:41.535Z,39.65
2018-12-16T13:51:09.943Z,45.03
2018-12-16T13:53:38.312Z,42.98
2018-12-16T13:56:06.632Z,44.27
2018-12-16T13:58:34.998Z,39.35
2018-12-16T14:01:03.313Z,36.68
2018-12-16T14:03:31.633Z,39.50
2018-12-16T14:06:00.112Z,44.45
2018-12-16T14:08:28.478Z,44.93
2018-12-16T14:10:56.860Z,41.05
2018-12-16T14:13:25.274Z,41.18
2018-12-16T14:15:53.595Z,41.92
2018-12-16T14:18:21.941Z,47.90
2018-12-16T14:20:50.299Z,43.73
2018-12-16T14:23:18.583Z,39.30
2018-12-16T14:25:48.198Z,40.92
2018-12-16T14:28:16.905Z,41.70
2018-12-16T14:30:45.274Z,42.60
2018-12-16T14:33:13.643Z,44.10
2018-12-16T14:35:41.963Z,43.65
2018-12-16T14:38:10.596Z,39.85
2018-12-16T14:40:38.940Z,43.63
2018-12-16T14:43:07.256Z,44.38
2018-12-16T14:45:35.773Z,45.78
2018-12-16T14:48:04.227Z,38.53
2018-12-16T14:50:33.775Z,40.60
2018-12-16T14:53:02.182Z,45.15
2018-12-16T14:55:30.533Z,42.08
2018-12-16T14:57:59.015Z,44.15
2018-12-16T15:00:27.497Z,37.23
2018-12-16T15:02:55.812Z,43.30
2018-12-16T15:05:24.459Z,41.08
2018-12-16T15:07:52.864Z,47.25
2018-12-16T15:10:21.297Z,45.43
2018-12-16T15:12:49.830Z,42.33
2018-12-16T15:15:18.777Z,41.58
2018-12-16T15:17:47.283Z,43.63
2018-12-16T15:20:15.631Z,43.50
2018-12-16T15:22:43.953Z,38.60
2018-12-16T15:25:12.246Z,37.60
2018-12-16T15:27:40.641Z,38.75
2018-12-16T15:30:09.472Z,48.25
2018-12-16T15:32:37.787Z,40.98
2018-12-16T15:35:06.266Z,40.67
2018-12-16T15:37:34.591Z,47.05
2018-12-16T15:40:03.027Z,38.20
2018-12-16T15:42:31.370Z,36.90
2018-12-16T15:44:59.977Z,43.78
2018-12-16T15:47:28.453Z,42.85
2018-12-16T15:49:56.983Z,41.42
2018-12-16T15:52:25.347Z,46.73
2018-12-16T15:54:53.703Z,40.60
2018-12-16T15:57:22.238Z,44.33
2018-12-16T15:59:50.560Z,41.13
2018-12-16T16:02:18.875Z,38.75
2018-12-16T16:04:47.254Z,38.25
2018-12-16T16:07:15.584Z,41.37
2018-12-16T16:09:43.901Z,43.35
2018-12-16T16:12:12.213Z,39.48
2018-12-16T16:14:40.604Z,41.23
2018-12-16T16:17:08.936Z,39.30
2018-12-16T16:19:37.613Z,42.73
2018-12-16T16:22:06.005Z,41.92
2018-12-16T16:24:34.281Z,43.68
2018-12-16T16:27:02.647Z,39.42
2018-12-16T16:29:31.009Z,45.12
2018-12-16T16:31:59.375Z,44.42
2018-12-16T16:34:27.697Z,39.50
2018-12-16T16:36:56.147Z,48.02
2018-12-16T16:39:24.432Z,44.25
2018-12-16T16:41:52.839Z,42.15
2018-12-16T16:44:21.121Z,45.48
2018-12-16T16:46:49.756Z,51.95
2018-12-16T16:49:18.106Z,39.25
2018-12-16T16:51:46.401Z,37.75
2018-12-16T16:54:14.693Z,45.70
2018-12-16T16:56:43.010Z,43.78
2018-12-16T16:59:11.302Z,41.60
2018-12-16T17:01:39.629Z,44.03
2018-12-16T17:04:08.026Z,40.30
2018-12-16T17:06:36.319Z,38.65
2018-12-16T17:09:08.045Z,44.67
2018-12-16T17:11:36.498Z,43.55
2018-12-16T17:14:04.885Z,36.85
2018-12-16T17:16:33.176Z,33.20
2018-12-16T17:19:02.625Z,43.38
2018-12-16T17:21:31.570Z,40.00
2018-12-16T17:23:59.882Z,48.50
2018-12-16T17:26:30.254Z,41.30
2018-12-16T17:28:58.640Z,43.90
2018-12-16T17:31:26.960Z,43.92
2018-12-16T17:33:55.288Z,39.50
2018-12-16T17:36:23.591Z,51.60
2018-12-16T17:38:51.912Z,48.05
2018-12-16T17:41:20.959Z,43.55
2018-12-16T17:43:49.264Z,45.80
2018-12-16T17:46:17.575Z,46.05
2018-12-16T17:48:45.995Z,47.55
2018-12-16T17:51:14.313Z,50.73
2018-12-16T17:53:42.857Z,43.63
2018-12-16T17:56:11.205Z,44.85
2018-12-16T17:58:39.519Z,43.87
2018-12-16T18:01:07.893Z,42.17
2018-12-16T18:03:36.234Z,42.55
2018-12-16T18:06:04.660Z,50.23
2018-12-16T18:08:33.005Z,46.02
2018-12-16T18:11:01.534Z,45.55
2018-12-16T18:13:29.887Z,45.20
2018-12-16T18:16:05.423Z,44.93
2018-12-16T18:18:40.718Z,55.60
2018-12-16T18:21:18.604Z,49.55
2018-12-16T18:23:47.213Z,44.15
2018-12-16T18:26:15.506Z,45.55
2018-12-16T18:28:44.133Z,43.40
2018-12-16T18:31:12.480Z,50.15
2018-12-16T18:33:40.830Z,45.10
2018-12-16T18:36:09.253Z,48.70
2018-12-16T18:38:37.531Z,45.10
2018-12-16T18:41:05.959Z,46.30
2018-12-16T18:43:34.417Z,46.48
2018-12-16T18:46:02.857Z,46.48
2018-12-16T18:48:31.263Z,45.50
2018-12-16T18:50:59.913Z,54.23
2018-12-16T18:53:28.466Z,49.15
2018-12-16T18:55:56.757Z,49.85
2018-12-16T18:58:25.061Z,50.67
2018-12-16T19:00:53.408Z,51.30
2018-12-16T19:03:21.759Z,48.98
2018-12-16T19:05:50.382Z,45.70
2018-12-16T19:08:18.695Z,46.18
2018-12-16T19:10:46.994Z,50.92
2018-12-16T19:13:15.450Z,50.67
2018-12-16T19:15:43.773Z,56.37
2018-12-16T19:18:12.063Z,53.92
2018-12-16T19:20:40.659Z,57.40
2018-12-16T19:23:09.395Z,57.78
2018-12-16T19:25:37.736Z,46.50
2018-12-16T19:28:07.403Z,47.73
2018-12-16T19:30:35.744Z,60.08
2018-12-16T19:33:04.241Z,53.68
2018-12-16T19:35:32.796Z,53.63
2018-12-16T19:38:02.448Z,55.75
2018-12-16T19:40:31.479Z,50.60
2018-12-16T19:43:00.082Z,55.48
2018-12-16T19:45:28.411Z,57.27
2018-12-16T19:47:56.731Z,54.48
2018-12-16T19:50:25.113Z,51.75
2018-12-16T19:52:53.417Z,55.52
2018-12-16T19:55:23.234Z,52.58
2018-12-16T19:57:51.769Z,53.10
2018-12-16T20:00:20.066Z,51.00
2018-12-16T20:02:48.372Z,51.25
2018-12-16T20:05:20.613Z,54.53
2018-12-16T20:07:49.503Z,50.40
2018-12-16T20:10:17.879Z,56.80
2018-12-16T20:12:46.344Z,52.60
2018-12-16T20:15:14.678Z,47.17
2018-12-16T20:17:42.979Z,53.00
2018-12-16T20:20:11.749Z,56.18
2018-12-16T20:22:40.067Z,55.15
2018-12-16T20:25:08.593Z,46.37
2018-12-16T20:27:36.931Z,51.77
2018-12-16T20:30:07.707Z,55.40
2018-12-16T20:32:36.037Z,50.05
2018-12-16T20:35:05.548Z,57.00
2018-12-16T20:37:34.723Z,47.78
2018-12-16T20:40:03.232Z,58.35
2018-12-16T20:42:31.816Z,51.80
2018-12-16T20:45:00.122Z,53.70
2018-12-16T20:47:28.445Z,49.65
2018-12-16T20:49:57.493Z,58.50
2018-12-16T20:52:25.791Z,46.37
2018-12-16T20:54:54.123Z,54.83
2018-12-16T20:57:22.504Z,51.02
2018-12-16T20:59:50.919Z,59.77
2018-12-16T21:02:19.297Z,46.05
2018-12-16T21:04:48.110Z,47.65
2018-12-16T21:07:16.433Z,47.65
2018-12-16T21:09:44.761Z,47.67
2018-12-16T21:15:21.617Z,53.55
2018-12-16T21:17:55.317Z,46.35
2018-12-16T21:20:26.686Z,48.73
2018-12-16T21:22:54.964Z,45.67
2018-12-16T21:25:23.569Z,46.73
2018-12-16T21:27:51.853Z,48.48
2018-12-16T21:30:20.198Z,53.90
2018-12-16T21:32:48.580Z,42.13
2018-12-16T21:35:22.746Z,51.80
2018-12-16T21:37:56.653Z,42.75
2018-12-16T21:40:25.258Z,42.88
2018-12-16T21:42:54.062Z,49.90
2018-12-16T21:45:22.501Z,51.08
2018-12-16T21:47:50.943Z,46.77
2018-12-16T21:50:19.253Z,47.33
2018-12-16T21:52:47.600Z,46.55
2018-12-16T21:55:15.944Z,55.17
2018-12-16T21:57:44.288Z,51.45
2018-12-16T22:00:13.624Z,40.60
2018-12-16T22:02:41.915Z,50.25
2018-12-16T22:05:11.468Z,47.30
2018-12-16T22:07:39.891Z,49.23
2018-12-16T22:10:08.331Z,43.17
2018-12-16T22:12:36.673Z,47.85
2018-12-16T22:15:05.434Z,47.90
2018-12-16T22:17:33.734Z,45.35
2018-12-16T22:20:02.072Z,49.45
2018-12-16T22:22:30.462Z,48.55
2018-12-16T22:24:58.888Z,47.43
2018-12-16T22:27:27.224Z,50.35
2018-12-16T22:29:56.041Z,43.65
2018-12-16T22:32:24.325Z,49.77
2018-12-16T22:34:52.625Z,45.40
2018-12-16T22:37:21.198Z,50.75
2018-12-16T22:39:49.532Z,47.27
2018-12-16T22:42:17.814Z,57.05
2018-12-16T22:44:46.223Z,53.58
2018-12-16T22:47:14.541Z,46.25
2018-12-16T22:49:42.857Z,50.23
2018-12-16T22:52:11.665Z,45.43
2018-12-16T22:54:40.000Z,46.92
2018-12-16T22:57:08.302Z,48.42
2018-12-16T22:59:39.033Z,47.65
2018-12-16T23:02:07.446Z,50.52
2018-12-16T23:04:35.742Z,53.08
2018-12-16T23:07:04.073Z,52.15
2018-12-16T23:09:32.422Z,47.67
2018-12-16T23:12:00.783Z,53.10
2018-12-16T23:14:29.318Z,52.17
2018-12-16T23:16:57.655Z,49.75
2018-12-16T23:19:25.952Z,48.75
2018-12-16T23:21:54.283Z,55.15
2018-12-16T23:24:24.235Z,48.92
2018-12-16T23:26:52.603Z,48.33
2018-12-16T23:29:20.937Z,52.10
2018-12-16T23:31:49.216Z,52.60
2018-12-16T23:34:17.528Z,53.98
2018-12-16T23:36:46.245Z,53.87
2018-12-16T23:39:14.525Z,50.65
2018-12-16T23:41:42.845Z,47.27
2018-12-16T23:44:11.147Z,46.88
2018-12-16T23:46:39.442Z,49.63
2018-12-16T23:49:07.742Z,51.63
2018-12-16T23:51:36.109Z,51.83
2018-12-16T23:54:04.474Z,52.08
2018-12-16T23:56:32.767Z,50.67
2018-12-16T23:59:01.213Z,50.80
